Date,TemperatureHighF,TemperatureAvgF,TemperatureLowF,DewpointHighF,DewpointAvgF,DewpointLowF,HumidityHigh,HumidityAvg,HumidityLow,PressureMaxIn,PressureMinIn,WindSpeedMaxMPH,WindSpeedAvgMPH,GustSpeedMaxMPH,PrecipitationSumIn
2012-1-1,54,52,44,51,48,41,93,87,74,29.33,29.10,4,2,15,0.13
2012-1-2,46,42,39,41,36,34,90,81,64,29.49,29.19,5,1,15,0.13
2012-1-3,54,47,42,51,41,33,92,81,66,29.42,28.92,13,5,31,0.23
2012-1-4,50,44,40,44,38,31,90,77,65,29.70,29.17,10,4,32,0.09
2012-1-5,53,49,44,46,39,35,79,70,56,29.63,29.01,13,8,32,0.02
2012-1-6,49,44,38,45,38,34,90,78,61,29.90,29.63,7,2,21,0.02
2012-1-7,51,48,44,46,39,35,88,72,57,29.82,29.63,7,3,18,0.00
2012-1-8,50,47,42,43,39,37,91,75,67,29.94,29.81,4,1,11,0.00
2012-1-9,54,50,43,46,45,41,93,84,70,30.08,29.91,6,1,14,0.00
2012-1-10,52,50,46,47,46,42,92,86,81,30.09,30.06,2,1,11,0.00
2012-1-11,53,48,43,46,43,39,88,84,75,30.09,29.99,3,1,10,0.00
2012-1-12,45,44,43,42,41,40,90,89,87,29.99,29.92,3,1,11,0.00
2012-1-20,50,48,47,43,41,40,83,77,71,29.67,29.59,6,3,16,0.00
2012-1-21,54,50,44,48,42,34,86,74,57,29.59,29.38,10,5,23,0.01
2012-1-22,53,46,42,42,36,34,79,68,52,29.63,29.43,9,4,24,0.01
2012-1-23,47,42,32,38,35,29,89,77,69,29.73,29.62,4,1,14,0.00
2012-1-24,49,40,29,48,38,26,95,94,89,29.75,29.58,2,0,8,0.18
2012-1-25,50,48,46,48,45,42,95,88,81,29.63,29.35,7,2,16,0.01
2012-1-26,49,44,36,45,38,32,92,81,62,29.54,29.26,7,3,20,0.02
2012-1-27,49,38,30,38,33,28,93,82,55,29.74,29.54,5,0,14,0.06
2012-1-28,43,38,33,38,35,31,93,88,75,30.05,29.74,3,0,9,0.02
2012-1-29,40,36,31,38,33,29,94,89,78,30.05,29.94,1,0,7,0.01
2012-1-30,39,33,28,33,29,24,92,84,65,29.94,29.80,1,0,8,0.01
2012-1-31,36,32,27,33,29,25,93,87,78,29.97,29.79,1,0,8,0.00
2012-2-1,39,32,28,27,23,18,81,68,43,30.15,29.97,2,1,15,0.00
2012-2-2,38,28,23,22,12,-100,82,60,36,30.23,30.14,2,-38,13,0.00
2012-2-3,36,25,21,26,10,-100,85,69,53,30.30,30.22,7,-56,11,0.00
2012-2-4,35,26,17,31,19,-100,93,81,70,30.27,29.80,5,-25,13,0.00
2012-2-5,36,34,32,35,32,31,94,94,93,30.03,29.76,1,0,6,0.20
2012-2-6,40,35,33,38,34,31,95,94,91,30.17,30.01,1,0,4,0.18
2012-2-7,42,33,23,34,27,16,94,79,54,30.39,30.16,2,0,9,0.19
2012-2-8,33,30,26,26,24,18,84,76,72,30.37,30.28,2,1,11,0.00
2012-2-9,34,31,29,30,26,24,91,80,71,30.30,30.22,1,0,7,0.00
2012-2-10,36,30,19,32,25,15,93,84,61,30.24,30.20,2,0,8,0.06
2012-2-11,35,22,12,27,18,9,89,82,65,30.20,30.17,3,0,8,0.06
2012-2-12,40,31,16,36,28,12,91,88,84,30.19,30.09,3,0,7,0.00
2012-2-13,43,39,32,40,36,30,93,88,76,30.10,29.78,6,2,14,0.02
2012-2-14,47,42,39,39,36,33,84,76,67,29.89,29.77,7,4,16,0.02
2012-2-28,56,51,49,49,45,-100,90,83,77,29.83,-32.77,2,-16,14,0.00
2012-2-29,55,51,48,48,46,44,90,84,74,29.84,29.80,1,0,7,0.00
2012-3-1,60,36,37,49,9,-100,94,64,58,29.93,29.82,4,-217,7,0.00
2012-3-2,55,27,44,50,-21,-100,94,45,66,29.93,29.69,72,-404,72,0.00
2012-3-3,59,49,43,47,42,32,94,80,37,29.72,29.60,8,2,18,0.00
2012-3-4,48,39,37,46,28,-100,94,81,72,29.71,29.45,10,-68,21,0.09
2012-3-5,49,42,38,35,31,28,79,66,45,29.81,29.67,12,8,28,0.09
2012-3-6,48,40,34,37,33,29,84,75,60,29.89,29.79,5,2,14,0.00
2012-3-7,52,45,37,50,38,30,93,77,52,29.79,29.40,10,4,25,0.06
2012-3-8,53,45,35,38,35,30,86,69,52,30.12,29.79,6,1,15,0.06
2012-3-9,52,49,43,45,42,37,84,76,69,30.14,30.09,5,1,14,0.00
2012-3-10,60,52,45,49,46,41,91,80,64,30.22,30.13,4,1,11,0.00
2012-3-11,63,46,36,48,36,-100,93,76,55,30.22,30.14,5,-34,9,0.00
2012-3-12,59,44,34,47,39,-100,94,85,62,30.16,30.10,3,-11,8,0.00
2012-3-13,48,44,39,44,40,36,92,87,78,30.15,30.09,2,0,7,0.00
2012-3-14,54,45,35,41,38,32,88,77,58,30.09,29.94,2,0,9,0.00
2012-3-15,50,41,30,46,37,27,90,86,76,29.94,29.75,3,1,11,0.00
2012-3-16,49,48,46,42,40,39,81,75,71,29.76,29.54,3,1,13,0.00
2012-3-17,48,46,44,44,42,40,90,87,81,29.54,29.43,3,1,8,0.01
2012-3-18,50,41,31,43,36,28,93,83,66,29.91,29.43,6,1,13,0.02
2012-3-19,56,44,27,39,32,24,94,67,42,30.13,29.91,4,1,11,0.00
2012-3-20,60,45,33,43,37,30,93,75,51,30.14,30.09,4,0,10,0.00
2012-3-21,63,52,41,43,40,38,89,65,43,30.14,30.03,1,0,9,0.00
2012-3-22,67,51,38,44,39,34,92,67,34,30.06,29.89,2,0,10,0.00
2012-3-23,69,53,39,49,43,36,93,72,36,29.90,29.85,1,0,9,0.00
2012-3-24,70,51,37,48,41,35,93,72,32,29.96,29.89,1,0,8,0.00
2012-4-9,52,50,49,48,47,46,92,89,84,29.03,28.69,7,4,20,0.09
2012-4-10,56,47,38,47,38,33,90,72,44,28.92,28.69,6,2,15,0.03
2012-4-11,58,45,31,41,35,29,93,71,39,29.14,28.92,8,1,17,0.03
2012-4-12,42,37,34,36,33,31,89,85,80,29.14,29.14,0,0,0,0.00
2012-4-16,45,43,42,31,29,27,65,57,50,29.72,29.63,5,2,11,0.00
2012-4-17,58,46,40,47,37,29,91,71,39,29.63,28.88,14,4,24,0.08
2012-4-18,52,46,42,46,41,37,89,84,73,28.87,28.40,7,4,17,0.17
2012-5-31,67,63,60,54,53,50,80,70,58,29.67,29.62,6,2,17,0.00
2012-6-1,73,62,55,57,54,52,91,75,53,29.68,29.63,2,0,9,0.00
2012-6-2,66,57,52,54,50,44,92,79,58,29.63,29.36,2,0,11,0.13
2012-6-3,53,52,50,51,50,48,94,93,91,29.36,29.26,1,0,9,0.13
2012-6-4,59,50,43,48,44,39,94,80,53,29.68,29.32,4,1,15,0.28
2012-6-5,58,51,40,53,46,37,94,83,59,29.68,29.23,6,2,20,0.20
2012-6-6,61,55,53,54,52,51,94,90,71,29.23,29.16,3,0,15,0.21
2012-7-15,66,62,56,48,47,45,74,58,49,29.71,29.54,3,1,11,0.00
2012-7-16,62,59,55,59,54,47,91,86,74,29.72,29.60,4,1,14,0.06
2012-8-10,84,69,54,60,55,52,93,66,34,29.90,29.80,1,0,7,0.00
2012-8-11,76,65,54,58,54,51,93,68,44,29.83,29.56,2,0,15,0.00
2012-8-12,79,68,58,60,57,53,91,70,43,29.56,29.40,4,1,15,0.00
2012-8-13,73,65,58,61,58,54,91,78,57,29.44,29.40,5,1,15,0.00
2012-8-14,77,68,63,61,59,55,91,73,46,29.44,29.38,4,1,16,0.00
2012-8-15,72,66,62,66,58,51,90,76,57,29.41,29.15,7,1,22,0.02
2012-8-16,63,62,62,55,54,54,76,75,73,29.42,29.35,3,1,14,0.02
2012-8-20,77,70,59,61,59,55,87,69,51,29.71,29.67,2,0,11,0.00
2012-8-21,72,63,56,59,56,53,93,79,55,29.70,29.53,4,0,15,0.12
2012-8-22,72,62,54,56,53,50,93,74,48,29.64,29.57,4,1,14,0.12
2012-8-23,72,62,53,55,52,48,91,70,46,29.62,29.37,2,0,9,0.00
2012-8-24,68,61,55,59,54,51,92,77,55,29.37,29.10,4,1,16,0.02
2012-8-25,70,62,57,60,58,54,93,86,61,29.29,29.07,6,1,20,0.20
2012-8-26,72,62,55,54,51,47,88,69,43,29.65,29.29,4,1,14,0.20
2012-8-27,70,61,49,58,54,47,94,78,58,29.65,29.35,7,2,21,0.03
2012-8-28,73,64,55,59,55,52,93,75,51,29.55,29.34,4,1,16,0.06
2012-8-29,68,59,56,58,54,49,93,85,52,29.53,29.40,7,1,21,0.13
2012-8-30,64,57,48,57,51,39,93,80,64,29.88,29.43,8,2,20,0.01
2012-8-31,68,55,40,50,42,37,89,65,38,29.99,29.88,4,1,11,0.01
2012-9-1,73,62,55,58,52,47,81,71,44,29.95,29.80,3,0,11,0.00
2012-9-2,65,60,53,60,56,50,92,86,79,29.87,29.79,2,0,8,0.00
2012-9-3,79,65,54,60,54,47,93,72,35,29.89,29.82,1,0,7,0.00
2012-9-4,79,63,50,63,56,47,94,77,55,29.83,29.76,2,0,8,0.00
2012-9-5,71,59,47,49,46,44,91,67,42,29.98,29.83,3,0,14,0.00
2012-9-6,72,57,41,52,45,39,94,68,38,29.98,29.84,2,0,11,0.00
2012-9-7,81,63,48,54,49,40,94,66,27,29.85,29.77,3,0,10,0.00
2012-9-8,82,62,43,56,46,35,94,65,19,29.78,29.58,1,0,9,0.00
2012-9-9,81,61,44,57,49,42,94,70,29,29.58,29.34,7,1,21,0.00
2012-9-10,69,64,61,59,57,54,91,78,65,29.40,29.35,5,2,18,0.00
2012-9-11,66,60,49,55,46,36,80,62,35,29.58,29.35,5,2,14,0.00
2012-9-12,64,53,40,54,45,36,93,75,56,29.58,29.43,5,1,14,0.08
2012-9-13,50,48,45,44,43,42,88,84,81,29.63,29.56,2,0,8,0.08
2012-12-12,27,26,25,25,24,23,93,93,92,29.53,29.46,0,0,0,0.00
2012-12-13,27,25,24,25,23,22,93,92,92,29.45,29.37,0,0,0,0.00
2012-12-17,45,44,42,40,39,38,86,83,78,29.24,29.20,1,0,9,0.01
2012-12-18,44,42,40,40,39,37,92,88,82,29.43,29.26,4,1,10,0.01
2012-12-19,45,45,45,44,38,-100,94,91,94,29.45,29.39,2,1,9,0.07
2012-12-20,50,48,45,49,46,43,96,95,93,29.38,29.02,2,1,13,0.35
2012-12-21,50,46,40,47,43,38,95,91,76,29.52,29.18,3,0,10,0.00
2012-12-22,46,42,39,45,40,37,95,94,93,29.51,29.44,2,0,7,0.02